Aérodrome :
LOGIN :

S'inscrire | Disclaimer

   EN    FR    IT 

 










Légende :    VFR   VFR Marginal   IFR   IFR Intensif   IFR Très Intensif
Visi : 
Plafond : 
>= 8 km
>= 3000ft
5 à 8 km
1000 à 3000 ft
1500m à 5 km
500 à 1000 ft
800 à 1500m
200 à 500 ft
< 800m
< 200 ft
Symboles :   Orages  Brouillard  Fortes neiges  Fortes précipitations  Vent > 20 kt
SIGMETs :   Divers  Orages  Givrage  Turbulence  Onde Orograph.  Cendres Volcan.






- Altitude de l'aérodrome : 392 ft
- Code IATA : CDG


LFPG - Paris-Aeroport Charles De Gaulle

DERNIER METAR :
  • 171100Z 30008KT 9999 FEW020 SCT024 06/04 Q1023 NOSIG

METARs EXPIRÉS :
  • 171030Z 29008KT 9999 FEW021TCU SCT028 BKN041 05/04 Q1023 NOSIG
  • 171000Z 30007KT 9999 FEW021TCU SCT025 BKN034 04/03 Q1023 RESHRA NOSIG
  • 170930Z 30008KT 9999 -SHRA FEW021TCU SCT025 BKN040 04/02 Q1022 NOSIG
  • 170900Z 30013KT 5000 SHRA BR BKN021 BKN034 04/02 Q1022 NOSIG
  • 170830Z 28009KT 9999 -SHRA SCT028 BKN073 BKN140 04/03 Q1021 NOSIG

TAF AMD TAF LFPG
Valide du 17 à 09h jusqu'au 18 à 12h UTC


170938Z 1709/1812 30008KT 8000 BKN035 TX06/1713Z TN01/1806Z
TEMPO 1709/1712 -SHRA SCT020TCU
PROB40 1721/1807 3000 BR
PROB30
TEMPO 1801/1812 BKN004
PROB30
TEMPO 1805/1806 0500 BCFG
ATIS : +33 1 48 62 10 92



MET'MAP, la Météo Aéronautique d'un coup d'oeil ! - Copyright ORBIFLY Décembre 2007 - Disclaimer

ORBIFLY MET'MAP TEAM :

Programmation & Développement : Alexandra Zaïnal
Sur une idée originale de : Baudouin d'Aumeries
Assistance à la programmation : Marc-Olivier Méhu
Soutien technique & logistique : Manuel Goepfert

Contact : metmap@orbifly.com




SOURCES & CREDITS :

   NOAA